Terminal Aerodrome Forecast
Issued by NWS Wichita, KS

Home | Current Version | Previous Version | Text Only | Print | Product List | Glossary Off
Versions: 1 2 3 4 5 6 7 8 9 10 11 12 13 14 15 16 17 18 19 20 21

000
FTUS43 KICT 220520
TAFICT
TAF
KICT 220520Z 2206/2306 01012KT P6SM OVC035
      TEMPO 2206/2210 OVC025
     FM221700 01014G20KT P6SM SCT030
     FM230100 36007KT P6SM SCT120=

USA.gov is the U.S. government's official web portal to all federal, state and local government web resources and services.